sensor_id;sensor_type;location;lat;lon;timestamp;P1;durP1;ratioP1;P2;durP2;ratioP2
77589;SDS011;66746;51.328;12.332;2023-06-14T00:01:39;3.97;;;2.35;;
77589;SDS011;66746;51.328;12.332;2023-06-14T00:04:05;4.05;;;2.78;;
77589;SDS011;66746;51.328;12.332;2023-06-14T00:06:32;2.85;;;2.35;;
77589;SDS011;66746;51.328;12.332;2023-06-14T00:08:58;2.75;;;2.40;;
77589;SDS011;66746;51.328;12.332;2023-06-14T00:11:26;3.00;;;2.67;;
77589;SDS011;66746;51.328;12.332;2023-06-14T00:13:52;4.20;;;2.00;;
77589;SDS011;66746;51.328;12.332;2023-06-14T00:16:19;4.25;;;1.95;;
77589;SDS011;66746;51.328;12.332;2023-06-14T00:18:45;2.80;;;2.60;;
77589;SDS011;66746;51.328;12.332;2023-06-14T00:21:12;3.28;;;2.40;;
77589;SDS011;66746;51.328;12.332;2023-06-14T00:23:38;2.50;;;2.03;;
77589;SDS011;66746;51.328;12.332;2023-06-14T00:26:05;3.80;;;2.80;;
77589;SDS011;66746;51.328;12.332;2023-06-14T00:28:32;4.20;;;2.50;;
77589;SDS011;66746;51.328;12.332;2023-06-14T00:30:59;3.13;;;2.92;;
77589;SDS011;66746;51.328;12.332;2023-06-14T00:33:27;3.22;;;2.88;;
77589;SDS011;66746;51.328;12.332;2023-06-14T00:35:53;2.58;;;2.38;;
77589;SDS011;66746;51.328;12.332;2023-06-14T00:38:20;6.18;;;2.47;;
77589;SDS011;66746;51.328;12.332;2023-06-14T00:40:46;2.70;;;2.50;;
77589;SDS011;66746;51.328;12.332;2023-06-14T00:43:13;2.67;;;2.33;;
77589;SDS011;66746;51.328;12.332;2023-06-14T00:45:40;3.35;;;2.63;;
77589;SDS011;66746;51.328;12.332;2023-06-14T00:48:07;2.65;;;2.10;;
77589;SDS011;66746;51.328;12.332;2023-06-14T00:50:34;4.57;;;3.08;;
77589;SDS011;66746;51.328;12.332;2023-06-14T00:53:00;3.13;;;2.58;;
77589;SDS011;66746;51.328;12.332;2023-06-14T00:55:27;3.10;;;2.80;;
77589;SDS011;66746;51.328;12.332;2023-06-14T00:57:54;3.50;;;2.42;;
77589;SDS011;66746;51.328;12.332;2023-06-14T01:00:20;4.57;;;3.20;;
77589;SDS011;66746;51.328;12.332;2023-06-14T01:02:48;4.75;;;3.05;;
77589;SDS011;66746;51.328;12.332;2023-06-14T01:05:15;3.72;;;3.03;;
77589;SDS011;66746;51.328;12.332;2023-06-14T01:07:46;3.60;;;2.90;;
77589;SDS011;66746;51.328;12.332;2023-06-14T01:10:16;3.65;;;2.72;;
77589;SDS011;66746;51.328;12.332;2023-06-14T01:12:48;3.58;;;2.45;;
77589;SDS011;66746;51.328;12.332;2023-06-14T01:17:44;3.25;;;2.95;;
77589;SDS011;66746;51.328;12.332;2023-06-14T01:20:12;2.47;;;2.28;;
77589;SDS011;66746;51.328;12.332;2023-06-14T01:22:45;3.28;;;2.92;;
77589;SDS011;66746;51.328;12.332;2023-06-14T01:25:11;4.15;;;2.70;;
77589;SDS011;66746;51.328;12.332;2023-06-14T01:27:38;5.90;;;3.22;;
77589;SDS011;66746;51.328;12.332;2023-06-14T01:30:05;3.38;;;2.95;;
77589;SDS011;66746;51.328;12.332;2023-06-14T01:32:31;3.97;;;3.35;;
77589;SDS011;66746;51.328;12.332;2023-06-14T01:35:00;3.55;;;2.75;;
77589;SDS011;66746;51.328;12.332;2023-06-14T01:37:27;4.35;;;3.13;;
77589;SDS011;66746;51.328;12.332;2023-06-14T01:39:55;4.07;;;3.47;;
77589;SDS011;66746;51.328;12.332;2023-06-14T01:42:22;3.42;;;3.13;;
77589;SDS011;66746;51.328;12.332;2023-06-14T01:44:49;3.03;;;2.72;;
77589;SDS011;66746;51.328;12.332;2023-06-14T01:47:16;3.40;;;2.40;;
77589;SDS011;66746;51.328;12.332;2023-06-14T01:49:43;3.30;;;3.00;;
77589;SDS011;66746;51.328;12.332;2023-06-14T01:52:09;2.72;;;2.42;;
77589;SDS011;66746;51.328;12.332;2023-06-14T01:54:35;4.75;;;4.22;;
77589;SDS011;66746;51.328;12.332;2023-06-14T01:57:03;3.22;;;2.92;;
77589;SDS011;66746;51.328;12.332;2023-06-14T01:59:30;4.57;;;3.17;;
77589;SDS011;66746;51.328;12.332;2023-06-14T02:01:57;3.92;;;2.67;;
77589;SDS011;66746;51.328;12.332;2023-06-14T02:04:23;3.42;;;3.08;;
77589;SDS011;66746;51.328;12.332;2023-06-14T02:06:49;3.67;;;3.00;;
77589;SDS011;66746;51.328;12.332;2023-06-14T02:09:16;4.97;;;2.92;;
77589;SDS011;66746;51.328;12.332;2023-06-14T02:11:43;5.25;;;3.55;;
77589;SDS011;66746;51.328;12.332;2023-06-14T02:14:11;4.75;;;3.25;;
77589;SDS011;66746;51.328;12.332;2023-06-14T02:16:37;6.65;;;4.45;;
77589;SDS011;66746;51.328;12.332;2023-06-14T02:19:03;3.75;;;2.60;;
77589;SDS011;66746;51.328;12.332;2023-06-14T02:21:30;3.60;;;2.85;;
77589;SDS011;66746;51.328;12.332;2023-06-14T02:23:56;4.72;;;3.05;;
77589;SDS011;66746;51.328;12.332;2023-06-14T02:26:23;4.35;;;2.55;;
77589;SDS011;66746;51.328;12.332;2023-06-14T02:28:49;2.90;;;2.58;;
77589;SDS011;66746;51.328;12.332;2023-06-14T02:31:17;3.85;;;2.60;;
77589;SDS011;66746;51.328;12.332;2023-06-14T02:33:43;3.00;;;2.80;;
77589;SDS011;66746;51.328;12.332;2023-06-14T02:36:10;4.28;;;3.17;;
77589;SDS011;66746;51.328;12.332;2023-06-14T02:38:36;5.85;;;3.05;;
77589;SDS011;66746;51.328;12.332;2023-06-14T02:41:02;3.40;;;2.30;;
77589;SDS011;66746;51.328;12.332;2023-06-14T02:43:29;4.90;;;3.25;;
77589;SDS011;66746;51.328;12.332;2023-06-14T02:45:55;5.13;;;3.17;;
77589;SDS011;66746;51.328;12.332;2023-06-14T02:48:23;2.85;;;2.55;;
77589;SDS011;66746;51.328;12.332;2023-06-14T02:50:49;5.43;;;4.15;;
77589;SDS011;66746;51.328;12.332;2023-06-14T02:53:15;4.13;;;2.70;;
77589;SDS011;66746;51.328;12.332;2023-06-14T02:55:42;3.25;;;2.95;;
77589;SDS011;66746;51.328;12.332;2023-06-14T02:58:09;4.28;;;2.92;;
77589;SDS011;66746;51.328;12.332;2023-06-14T03:00:35;5.05;;;3.20;;
77589;SDS011;66746;51.328;12.332;2023-06-14T03:03:02;5.00;;;3.33;;
77589;SDS011;66746;51.328;12.332;2023-06-14T03:05:30;3.85;;;2.88;;
77589;SDS011;66746;51.328;12.332;2023-06-14T03:07:56;4.53;;;3.65;;
77589;SDS011;66746;51.328;12.332;2023-06-14T03:10:23;3.53;;;3.05;;
77589;SDS011;66746;51.328;12.332;2023-06-14T03:12:53;3.88;;;3.58;;
77589;SDS011;66746;51.328;12.332;2023-06-14T03:17:48;6.03;;;2.92;;
77589;SDS011;66746;51.328;12.332;2023-06-14T03:20:15;4.40;;;3.15;;
77589;SDS011;66746;51.328;12.332;2023-06-14T03:22:44;3.70;;;3.40;;
77589;SDS011;66746;51.328;12.332;2023-06-14T03:25:12;4.55;;;3.13;;
77589;SDS011;66746;51.328;12.332;2023-06-14T03:27:40;4.75;;;2.80;;
77589;SDS011;66746;51.328;12.332;2023-06-14T03:30:07;3.42;;;3.13;;
77589;SDS011;66746;51.328;12.332;2023-06-14T03:32:34;4.95;;;3.42;;
77589;SDS011;66746;51.328;12.332;2023-06-14T03:35:03;3.95;;;3.38;;
77589;SDS011;66746;51.328;12.332;2023-06-14T03:37:29;3.88;;;3.30;;
77589;SDS011;66746;51.328;12.332;2023-06-14T03:39:57;4.35;;;2.85;;
77589;SDS011;66746;51.328;12.332;2023-06-14T03:42:24;3.63;;;3.05;;
77589;SDS011;66746;51.328;12.332;2023-06-14T03:44:51;3.65;;;3.15;;
77589;SDS011;66746;51.328;12.332;2023-06-14T03:47:20;3.17;;;2.88;;
77589;SDS011;66746;51.328;12.332;2023-06-14T03:49:46;3.13;;;2.85;;
77589;SDS011;66746;51.328;12.332;2023-06-14T03:52:13;4.43;;;2.97;;
77589;SDS011;66746;51.328;12.332;2023-06-14T03:54:42;6.15;;;3.95;;
77589;SDS011;66746;51.328;12.332;2023-06-14T03:57:30;3.17;;;2.88;;
77589;SDS011;66746;51.328;12.332;2023-06-14T03:59:57;4.93;;;2.83;;
77589;SDS011;66746;51.328;12.332;2023-06-14T04:02:25;5.55;;;4.88;;
77589;SDS011;66746;51.328;12.332;2023-06-14T04:04:54;5.22;;;3.05;;
77589;SDS011;66746;51.328;12.332;2023-06-14T04:07:21;3.40;;;2.92;;
77589;SDS011;66746;51.328;12.332;2023-06-14T04:09:47;4.25;;;3.40;;
77589;SDS011;66746;51.328;12.332;2023-06-14T04:12:13;3.72;;;2.80;;
77589;SDS011;66746;51.328;12.332;2023-06-14T04:14:41;3.88;;;3.45;;
77589;SDS011;66746;51.328;12.332;2023-06-14T04:17:09;4.63;;;4.07;;
77589;SDS011;66746;51.328;12.332;2023-06-14T04:19:37;4.05;;;3.47;;
77589;SDS011;66746;51.328;12.332;2023-06-14T04:22:03;3.78;;;3.13;;
77589;SDS011;66746;51.328;12.332;2023-06-14T04:24:33;4.88;;;3.53;;
77589;SDS011;66746;51.328;12.332;2023-06-14T04:27:00;4.07;;;3.38;;
77589;SDS011;66746;51.328;12.332;2023-06-14T04:29:27;3.63;;;3.15;;
77589;SDS011;66746;51.328;12.332;2023-06-14T04:32:02;3.47;;;2.85;;
77589;SDS011;66746;51.328;12.332;2023-06-14T04:34:29;5.30;;;3.10;;
77589;SDS011;66746;51.328;12.332;2023-06-14T04:36:56;3.65;;;2.90;;
77589;SDS011;66746;51.328;12.332;2023-06-14T04:39:28;3.97;;;3.22;;
77589;SDS011;66746;51.328;12.332;2023-06-14T04:41:55;5.20;;;3.22;;
77589;SDS011;66746;51.328;12.332;2023-06-14T04:44:23;4.97;;;3.47;;
77589;SDS011;66746;51.328;12.332;2023-06-14T04:46:49;3.58;;;3.28;;
77589;SDS011;66746;51.328;12.332;2023-06-14T04:49:21;4.38;;;3.53;;
77589;SDS011;66746;51.328;12.332;2023-06-14T04:51:49;4.07;;;3.20;;
77589;SDS011;66746;51.328;12.332;2023-06-14T04:54:15;4.50;;;3.30;;
77589;SDS011;66746;51.328;12.332;2023-06-14T04:56:42;6.75;;;3.50;;
77589;SDS011;66746;51.328;12.332;2023-06-14T04:59:10;5.38;;;3.50;;
77589;SDS011;66746;51.328;12.332;2023-06-14T05:01:36;5.40;;;3.95;;
77589;SDS011;66746;51.328;12.332;2023-06-14T05:04:03;4.45;;;3.92;;
77589;SDS011;66746;51.328;12.332;2023-06-14T05:06:31;4.18;;;3.08;;
77589;SDS011;66746;51.328;12.332;2023-06-14T05:08:58;3.90;;;3.42;;
77589;SDS011;66746;51.328;12.332;2023-06-14T05:11:24;4.95;;;4.40;;
77589;SDS011;66746;51.328;12.332;2023-06-14T05:13:50;4.63;;;4.22;;
77589;SDS011;66746;51.328;12.332;2023-06-14T05:16:17;4.68;;;4.05;;
77589;SDS011;66746;51.328;12.332;2023-06-14T05:18:45;4.93;;;4.25;;
77589;SDS011;66746;51.328;12.332;2023-06-14T05:21:12;6.47;;;3.85;;
77589;SDS011;66746;51.328;12.332;2023-06-14T05:23:39;5.20;;;3.75;;
77589;SDS011;66746;51.328;12.332;2023-06-14T05:26:06;5.15;;;4.65;;
77589;SDS011;66746;51.328;12.332;2023-06-14T05:28:32;5.72;;;3.85;;
77589;SDS011;66746;51.328;12.332;2023-06-14T05:30:58;5.68;;;5.22;;
77589;SDS011;66746;51.328;12.332;2023-06-14T05:33:25;6.18;;;4.85;;
77589;SDS011;66746;51.328;12.332;2023-06-14T05:35:51;6.13;;;4.50;;
77589;SDS011;66746;51.328;12.332;2023-06-14T05:38:18;4.13;;;3.72;;
77589;SDS011;66746;51.328;12.332;2023-06-14T05:40:46;5.47;;;4.72;;
77589;SDS011;66746;51.328;12.332;2023-06-14T05:43:12;4.95;;;4.45;;
77589;SDS011;66746;51.328;12.332;2023-06-14T05:45:38;4.72;;;4.25;;
77589;SDS011;66746;51.328;12.332;2023-06-14T05:48:05;6.07;;;4.47;;
77589;SDS011;66746;51.328;12.332;2023-06-14T05:50:31;5.38;;;4.10;;
77589;SDS011;66746;51.328;12.332;2023-06-14T05:52:58;5.20;;;4.22;;
77589;SDS011;66746;51.328;12.332;2023-06-14T05:55:24;4.55;;;3.95;;
77589;SDS011;66746;51.328;12.332;2023-06-14T05:57:52;5.88;;;4.10;;
77589;SDS011;66746;51.328;12.332;2023-06-14T06:00:18;5.55;;;5.05;;
77589;SDS011;66746;51.328;12.332;2023-06-14T06:02:45;4.88;;;4.18;;
77589;SDS011;66746;51.328;12.332;2023-06-14T06:05:12;5.63;;;4.85;;
77589;SDS011;66746;51.328;12.332;2023-06-14T06:07:39;5.32;;;4.55;;
77589;SDS011;66746;51.328;12.332;2023-06-14T06:10:06;4.95;;;4.10;;
77589;SDS011;66746;51.328;12.332;2023-06-14T06:12:32;4.53;;;4.13;;
77589;SDS011;66746;51.328;12.332;2023-06-14T06:15:19;5.30;;;4.55;;
77589;SDS011;66746;51.328;12.332;2023-06-14T06:17:46;6.65;;;4.75;;
77589;SDS011;66746;51.328;12.332;2023-06-14T06:22:48;4.28;;;3.88;;
77589;SDS011;66746;51.328;12.332;2023-06-14T06:25:15;5.22;;;4.72;;
77589;SDS011;66746;51.328;12.332;2023-06-14T06:27:42;5.63;;;4.75;;
77589;SDS011;66746;51.328;12.332;2023-06-14T06:30:08;5.25;;;4.75;;
77589;SDS011;66746;51.328;12.332;2023-06-14T06:32:36;5.70;;;4.53;;
77589;SDS011;66746;51.328;12.332;2023-06-14T06:35:03;6.38;;;5.05;;
77589;SDS011;66746;51.328;12.332;2023-06-14T06:37:29;6.35;;;4.60;;
77589;SDS011;66746;51.328;12.332;2023-06-14T06:39:55;5.47;;;4.07;;
77589;SDS011;66746;51.328;12.332;2023-06-14T06:42:22;6.10;;;5.53;;
77589;SDS011;66746;51.328;12.332;2023-06-14T06:44:49;5.00;;;4.50;;
77589;SDS011;66746;51.328;12.332;2023-06-14T06:47:16;6.70;;;4.60;;
77589;SDS011;66746;51.328;12.332;2023-06-14T06:49:44;7.75;;;4.57;;
77589;SDS011;66746;51.328;12.332;2023-06-14T06:52:10;5.63;;;4.07;;
77589;SDS011;66746;51.328;12.332;2023-06-14T06:54:39;6.20;;;4.47;;
77589;SDS011;66746;51.328;12.332;2023-06-14T06:57:05;5.90;;;4.30;;
77589;SDS011;66746;51.328;12.332;2023-06-14T06:59:32;5.28;;;4.78;;
77589;SDS011;66746;51.328;12.332;2023-06-14T07:01:58;5.40;;;4.30;;
77589;SDS011;66746;51.328;12.332;2023-06-14T07:04:25;6.18;;;4.45;;
77589;SDS011;66746;51.328;12.332;2023-06-14T07:06:53;4.65;;;3.67;;
77589;SDS011;66746;51.328;12.332;2023-06-14T07:09:19;5.68;;;4.18;;
77589;SDS011;66746;51.328;12.332;2023-06-14T07:11:46;5.70;;;3.75;;
77589;SDS011;66746;51.328;12.332;2023-06-14T07:14:13;6.32;;;4.28;;
77589;SDS011;66746;51.328;12.332;2023-06-14T07:16:39;5.38;;;3.65;;
77589;SDS011;66746;51.328;12.332;2023-06-14T07:19:06;4.40;;;4.00;;
77589;SDS011;66746;51.328;12.332;2023-06-14T07:21:32;5.95;;;5.03;;
77589;SDS011;66746;51.328;12.332;2023-06-14T07:24:00;5.65;;;3.75;;
77589;SDS011;66746;51.328;12.332;2023-06-14T07:26:26;6.47;;;4.05;;
77589;SDS011;66746;51.328;12.332;2023-06-14T07:28:52;5.80;;;4.38;;
77589;SDS011;66746;51.328;12.332;2023-06-14T07:31:19;4.97;;;4.43;;
77589;SDS011;66746;51.328;12.332;2023-06-14T07:33:46;5.03;;;4.13;;
77589;SDS011;66746;51.328;12.332;2023-06-14T07:36:12;4.80;;;3.40;;
77589;SDS011;66746;51.328;12.332;2023-06-14T07:38:38;4.05;;;3.65;;
77589;SDS011;66746;51.328;12.332;2023-06-14T07:41:06;4.65;;;3.55;;
77589;SDS011;66746;51.328;12.332;2023-06-14T07:43:33;6.85;;;3.55;;
77589;SDS011;66746;51.328;12.332;2023-06-14T07:45:59;4.53;;;3.50;;
77589;SDS011;66746;51.328;12.332;2023-06-14T07:48:33;5.30;;;3.33;;
77589;SDS011;66746;51.328;12.332;2023-06-14T07:51:01;4.90;;;3.80;;
77589;SDS011;66746;51.328;12.332;2023-06-14T07:53:27;4.05;;;3.67;;
77589;SDS011;66746;51.328;12.332;2023-06-14T07:55:54;3.65;;;3.33;;
77589;SDS011;66746;51.328;12.332;2023-06-14T07:58:21;5.30;;;3.75;;
77589;SDS011;66746;51.328;12.332;2023-06-14T08:00:48;4.95;;;3.85;;
77589;SDS011;66746;51.328;12.332;2023-06-14T08:03:14;4.00;;;3.60;;
77589;SDS011;66746;51.328;12.332;2023-06-14T08:05:41;5.63;;;3.88;;
77589;SDS011;66746;51.328;12.332;2023-06-14T08:08:07;6.57;;;3.83;;
77589;SDS011;66746;51.328;12.332;2023-06-14T08:10:34;4.10;;;3.60;;
77589;SDS011;66746;51.328;12.332;2023-06-14T08:13:00;4.13;;;3.15;;
77589;SDS011;66746;51.328;12.332;2023-06-14T08:15:28;5.60;;;3.60;;
77589;SDS011;66746;51.328;12.332;2023-06-14T08:17:54;5.90;;;3.78;;
77589;SDS011;66746;51.328;12.332;2023-06-14T08:20:21;6.63;;;3.28;;
77589;SDS011;66746;51.328;12.332;2023-06-14T08:22:47;4.70;;;3.45;;
77589;SDS011;66746;51.328;12.332;2023-06-14T08:25:13;4.45;;;3.50;;
77589;SDS011;66746;51.328;12.332;2023-06-14T08:27:41;3.92;;;3.25;;
77589;SDS011;66746;51.328;12.332;2023-06-14T08:30:07;4.32;;;3.92;;
77589;SDS011;66746;51.328;12.332;2023-06-14T08:32:35;3.70;;;3.20;;
77589;SDS011;66746;51.328;12.332;2023-06-14T08:35:02;4.00;;;3.38;;
77589;SDS011;66746;51.328;12.332;2023-06-14T08:37:31;3.97;;;3.30;;
77589;SDS011;66746;51.328;12.332;2023-06-14T08:39:57;4.03;;;3.63;;
77589;SDS011;66746;51.328;12.332;2023-06-14T08:42:23;4.70;;;3.28;;
77589;SDS011;66746;51.328;12.332;2023-06-14T08:44:57;3.85;;;3.40;;
77589;SDS011;66746;51.328;12.332;2023-06-14T08:47:23;5.10;;;3.60;;
77589;SDS011;66746;51.328;12.332;2023-06-14T08:49:52;3.90;;;3.15;;
77589;SDS011;66746;51.328;12.332;2023-06-14T08:52:19;3.55;;;3.10;;
77589;SDS011;66746;51.328;12.332;2023-06-14T08:54:46;4.50;;;3.50;;
77589;SDS011;66746;51.328;12.332;2023-06-14T08:57:13;3.80;;;3.33;;
77589;SDS011;66746;51.328;12.332;2023-06-14T08:59:40;3.47;;;3.17;;
77589;SDS011;66746;51.328;12.332;2023-06-14T09:02:10;5.32;;;3.05;;
77589;SDS011;66746;51.328;12.332;2023-06-14T09:04:38;3.40;;;3.10;;
77589;SDS011;66746;51.328;12.332;2023-06-14T09:07:06;4.20;;;3.22;;
77589;SDS011;66746;51.328;12.332;2023-06-14T09:09:33;4.40;;;3.38;;
77589;SDS011;66746;51.328;12.332;2023-06-14T09:12:06;4.22;;;3.17;;
77589;SDS011;66746;51.328;12.332;2023-06-14T09:14:33;3.42;;;3.13;;
77589;SDS011;66746;51.328;12.332;2023-06-14T09:16:59;5.45;;;3.10;;
77589;SDS011;66746;51.328;12.332;2023-06-14T09:19:26;3.42;;;3.05;;
77589;SDS011;66746;51.328;12.332;2023-06-14T09:21:52;3.33;;;3.03;;
77589;SDS011;66746;51.328;12.332;2023-06-14T09:24:20;4.15;;;3.35;;
77589;SDS011;66746;51.328;12.332;2023-06-14T09:26:46;3.33;;;3.00;;
77589;SDS011;66746;51.328;12.332;2023-06-14T09:29:13;3.28;;;2.63;;
77589;SDS011;66746;51.328;12.332;2023-06-14T09:32:29;4.22;;;2.88;;
77589;SDS011;66746;51.328;12.332;2023-06-14T09:34:55;6.75;;;3.55;;
77589;SDS011;66746;51.328;12.332;2023-06-14T09:37:28;3.28;;;2.97;;
77589;SDS011;66746;51.328;12.332;2023-06-14T09:39:56;3.72;;;2.65;;
77589;SDS011;66746;51.328;12.332;2023-06-14T09:42:22;6.05;;;3.15;;
77589;SDS011;66746;51.328;12.332;2023-06-14T09:44:49;3.25;;;2.92;;
77589;SDS011;66746;51.328;12.332;2023-06-14T09:47:15;6.22;;;3.30;;
77589;SDS011;66746;51.328;12.332;2023-06-14T09:49:42;4.20;;;3.15;;
77589;SDS011;66746;51.328;12.332;2023-06-14T09:52:09;3.00;;;2.70;;
77589;SDS011;66746;51.328;12.332;2023-06-14T09:54:36;3.63;;;3.05;;
77589;SDS011;66746;51.328;12.332;2023-06-14T09:57:07;4.38;;;2.60;;
77589;SDS011;66746;51.328;12.332;2023-06-14T09:59:33;3.30;;;3.00;;
77589;SDS011;66746;51.328;12.332;2023-06-14T10:02:03;3.08;;;2.50;;
77589;SDS011;66746;51.328;12.332;2023-06-14T10:04:32;2.65;;;2.35;;
77589;SDS011;66746;51.328;12.332;2023-06-14T10:06:59;3.72;;;2.72;;
77589;SDS011;66746;51.328;12.332;2023-06-14T10:09:26;2.55;;;2.35;;
77589;SDS011;66746;51.328;12.332;2023-06-14T10:11:54;3.45;;;2.17;;
77589;SDS011;66746;51.328;12.332;2023-06-14T10:14:22;3.10;;;2.80;;
77589;SDS011;66746;51.328;12.332;2023-06-14T10:16:56;2.75;;;2.00;;
77589;SDS011;66746;51.328;12.332;2023-06-14T10:19:24;3.55;;;2.08;;
77589;SDS011;66746;51.328;12.332;2023-06-14T10:21:55;3.30;;;2.00;;
77589;SDS011;66746;51.328;12.332;2023-06-14T10:24:25;4.70;;;2.47;;
77589;SDS011;66746;51.328;12.332;2023-06-14T10:26:54;3.00;;;1.90;;
77589;SDS011;66746;51.328;12.332;2023-06-14T10:29:26;2.35;;;2.10;;
77589;SDS011;66746;51.328;12.332;2023-06-14T10:31:55;4.55;;;2.67;;
77589;SDS011;66746;51.328;12.332;2023-06-14T10:34:23;3.53;;;2.60;;
77589;SDS011;66746;51.328;12.332;2023-06-14T10:37:00;3.20;;;2.13;;
77589;SDS011;66746;51.328;12.332;2023-06-14T10:39:27;4.40;;;2.10;;
77589;SDS011;66746;51.328;12.332;2023-06-14T10:41:54;2.97;;;2.78;;
77589;SDS011;66746;51.328;12.332;2023-06-14T10:47:23;2.78;;;2.42;;
77589;SDS011;66746;51.328;12.332;2023-06-14T10:49:50;2.08;;;1.80;;
77589;SDS011;66746;51.328;12.332;2023-06-14T10:52:17;2.80;;;2.00;;
77589;SDS011;66746;51.328;12.332;2023-06-14T10:54:59;2.65;;;2.05;;
77589;SDS011;66746;51.328;12.332;2023-06-14T10:57:26;2.83;;;2.00;;
77589;SDS011;66746;51.328;12.332;2023-06-14T10:59:52;2.65;;;1.85;;
77589;SDS011;66746;51.328;12.332;2023-06-14T11:02:33;2.55;;;1.63;;
77589;SDS011;66746;51.328;12.332;2023-06-14T11:05:08;3.08;;;2.08;;
77589;SDS011;66746;51.328;12.332;2023-06-14T11:07:38;2.38;;;1.48;;
77589;SDS011;66746;51.328;12.332;2023-06-14T11:10:10;3.20;;;1.70;;
77589;SDS011;66746;51.328;12.332;2023-06-14T11:12:41;2.80;;;1.88;;
77589;SDS011;66746;51.328;12.332;2023-06-14T11:15:08;2.78;;;2.25;;
77589;SDS011;66746;51.328;12.332;2023-06-14T11:17:35;2.88;;;2.40;;
77589;SDS011;66746;51.328;12.332;2023-06-14T11:20:08;4.90;;;2.00;;
77589;SDS011;66746;51.328;12.332;2023-06-14T11:22:38;3.20;;;2.45;;
77589;SDS011;66746;51.328;12.332;2023-06-14T11:25:07;2.50;;;2.08;;
77589;SDS011;66746;51.328;12.332;2023-06-14T11:27:34;2.45;;;1.85;;
77589;SDS011;66746;51.328;12.332;2023-06-14T11:30:00;3.08;;;1.90;;
77589;SDS011;66746;51.328;12.332;2023-06-14T11:32:27;2.88;;;2.08;;
77589;SDS011;66746;51.328;12.332;2023-06-14T11:34:54;3.45;;;2.05;;
77589;SDS011;66746;51.328;12.332;2023-06-14T11:37:21;3.17;;;2.38;;
77589;SDS011;66746;51.328;12.332;2023-06-14T11:39:47;2.70;;;2.47;;
77589;SDS011;66746;51.328;12.332;2023-06-14T11:42:14;2.55;;;2.22;;
77589;SDS011;66746;51.328;12.332;2023-06-14T11:44:41;2.92;;;2.47;;
77589;SDS011;66746;51.328;12.332;2023-06-14T11:47:07;2.65;;;2.13;;
77589;SDS011;66746;51.328;12.332;2023-06-14T11:49:35;4.15;;;2.55;;
77589;SDS011;66746;51.328;12.332;2023-06-14T11:52:04;3.28;;;2.85;;
77589;SDS011;66746;51.328;12.332;2023-06-14T11:54:31;3.55;;;3.25;;
77589;SDS011;66746;51.328;12.332;2023-06-14T11:56:58;2.95;;;2.05;;
77589;SDS011;66746;51.328;12.332;2023-06-14T11:59:24;2.50;;;2.30;;
77589;SDS011;66746;51.328;12.332;2023-06-14T12:01:52;2.92;;;2.63;;
77589;SDS011;66746;51.328;12.332;2023-06-14T12:04:23;3.22;;;2.50;;
77589;SDS011;66746;51.328;12.332;2023-06-14T12:06:49;2.90;;;2.33;;
77589;SDS011;66746;51.328;12.332;2023-06-14T12:09:17;3.10;;;2.22;;
77589;SDS011;66746;51.328;12.332;2023-06-14T12:11:43;3.38;;;2.00;;
77589;SDS011;66746;51.328;12.332;2023-06-14T12:14:10;2.95;;;2.10;;
77589;SDS011;66746;51.328;12.332;2023-06-14T12:16:37;3.25;;;2.95;;
77589;SDS011;66746;51.328;12.332;2023-06-14T12:19:08;3.95;;;2.53;;
77589;SDS011;66746;51.328;12.332;2023-06-14T12:21:35;2.63;;;2.22;;
77589;SDS011;66746;51.328;12.332;2023-06-14T12:24:03;2.38;;;2.17;;
77589;SDS011;66746;51.328;12.332;2023-06-14T12:26:30;2.67;;;1.88;;
77589;SDS011;66746;51.328;12.332;2023-06-14T12:28:57;4.35;;;1.98;;
77589;SDS011;66746;51.328;12.332;2023-06-14T12:31:23;2.88;;;2.22;;
77589;SDS011;66746;51.328;12.332;2023-06-14T12:33:50;4.40;;;3.03;;
77589;SDS011;66746;51.328;12.332;2023-06-14T12:36:16;6.55;;;2.35;;
77589;SDS011;66746;51.328;12.332;2023-06-14T12:38:43;3.50;;;2.40;;
77589;SDS011;66746;51.328;12.332;2023-06-14T12:41:09;2.95;;;2.58;;
77589;SDS011;66746;51.328;12.332;2023-06-14T12:43:37;2.78;;;2.53;;
77589;SDS011;66746;51.328;12.332;2023-06-14T12:46:03;3.08;;;2.67;;
77589;SDS011;66746;51.328;12.332;2023-06-14T12:48:30;2.53;;;2.13;;
77589;SDS011;66746;51.328;12.332;2023-06-14T12:50:56;3.22;;;2.45;;
77589;SDS011;66746;51.328;12.332;2023-06-14T12:53:23;2.72;;;2.17;;
77589;SDS011;66746;51.328;12.332;2023-06-14T12:55:49;5.55;;;2.72;;
77589;SDS011;66746;51.328;12.332;2023-06-14T12:58:16;3.13;;;2.83;;
77589;SDS011;66746;51.328;12.332;2023-06-14T13:00:44;3.92;;;2.90;;
77589;SDS011;66746;51.328;12.332;2023-06-14T13:03:10;4.72;;;2.75;;
77589;SDS011;66746;51.328;12.332;2023-06-14T13:05:37;3.78;;;2.88;;
77589;SDS011;66746;51.328;12.332;2023-06-14T13:08:04;3.55;;;3.10;;
77589;SDS011;66746;51.328;12.332;2023-06-14T13:10:30;3.22;;;2.92;;
77589;SDS011;66746;51.328;12.332;2023-06-14T13:12:56;4.25;;;2.40;;
77589;SDS011;66746;51.328;12.332;2023-06-14T13:15:23;2.53;;;2.33;;
77589;SDS011;66746;51.328;12.332;2023-06-14T13:17:51;3.50;;;2.55;;
77589;SDS011;66746;51.328;12.332;2023-06-14T13:20:17;3.25;;;2.95;;
77589;SDS011;66746;51.328;12.332;2023-06-14T13:22:46;4.07;;;2.60;;
77589;SDS011;66746;51.328;12.332;2023-06-14T13:25:12;3.65;;;2.95;;
77589;SDS011;66746;51.328;12.332;2023-06-14T13:27:38;4.22;;;2.67;;
77589;SDS011;66746;51.328;12.332;2023-06-14T13:30:05;4.20;;;2.78;;
77589;SDS011;66746;51.328;12.332;2023-06-14T13:32:32;3.25;;;2.95;;
77589;SDS011;66746;51.328;12.332;2023-06-14T13:35:01;3.38;;;3.08;;
77589;SDS011;66746;51.328;12.332;2023-06-14T13:37:27;3.78;;;3.45;;
77589;SDS011;66746;51.328;12.332;2023-06-14T13:39:54;3.83;;;3.08;;
77589;SDS011;66746;51.328;12.332;2023-06-14T13:42:20;4.00;;;2.60;;
77589;SDS011;66746;51.328;12.332;2023-06-14T13:44:46;2.78;;;2.55;;
77589;SDS011;66746;51.328;12.332;2023-06-14T13:47:13;3.80;;;3.05;;
77589;SDS011;66746;51.328;12.332;2023-06-14T13:49:39;3.35;;;2.72;;
77589;SDS011;66746;51.328;12.332;2023-06-14T13:52:07;4.45;;;2.67;;
77589;SDS011;66746;51.328;12.332;2023-06-14T13:54:33;3.63;;;2.80;;
77589;SDS011;66746;51.328;12.332;2023-06-14T13:57:00;7.57;;;3.20;;
77589;SDS011;66746;51.328;12.332;2023-06-14T13:59:26;5.05;;;3.10;;
77589;SDS011;66746;51.328;12.332;2023-06-14T14:01:52;4.03;;;2.90;;
77589;SDS011;66746;51.328;12.332;2023-06-14T14:04:19;4.60;;;3.47;;
77589;SDS011;66746;51.328;12.332;2023-06-14T14:06:46;4.22;;;2.80;;
77589;SDS011;66746;51.328;12.332;2023-06-14T14:09:16;3.85;;;2.63;;
77589;SDS011;66746;51.328;12.332;2023-06-14T14:11:42;4.43;;;3.67;;
77589;SDS011;66746;51.328;12.332;2023-06-14T14:14:09;5.15;;;3.28;;
77589;SDS011;66746;51.328;12.332;2023-06-14T14:16:35;4.05;;;3.60;;
77589;SDS011;66746;51.328;12.332;2023-06-14T14:19:02;4.68;;;3.22;;
77589;SDS011;66746;51.328;12.332;2023-06-14T14:21:28;3.67;;;2.97;;
77589;SDS011;66746;51.328;12.332;2023-06-14T14:23:54;4.72;;;3.50;;
77589;SDS011;66746;51.328;12.332;2023-06-14T14:26:22;4.00;;;3.08;;
77589;SDS011;66746;51.328;12.332;2023-06-14T14:28:48;3.60;;;2.97;;
77589;SDS011;66746;51.328;12.332;2023-06-14T14:31:15;4.25;;;2.58;;
77589;SDS011;66746;51.328;12.332;2023-06-14T14:33:41;3.63;;;2.92;;
77589;SDS011;66746;51.328;12.332;2023-06-14T14:36:08;3.63;;;3.13;;
77589;SDS011;66746;51.328;12.332;2023-06-14T14:38:34;3.40;;;3.03;;
77589;SDS011;66746;51.328;12.332;2023-06-14T14:41:01;8.95;;;3.28;;
77589;SDS011;66746;51.328;12.332;2023-06-14T14:43:28;3.42;;;2.78;;
77589;SDS011;66746;51.328;12.332;2023-06-14T14:45:55;3.58;;;3.00;;